createdAt,value
2023-01-13T00:02:21.981Z,1.40
2023-01-13T00:04:48.656Z,1.38
2023-01-13T00:07:15.229Z,0.88
2023-01-13T00:09:41.691Z,1.00
2023-01-13T00:12:08.212Z,0.75
2023-01-13T00:14:35.585Z,0.75
2023-01-13T00:17:03.689Z,1.00
2023-01-13T00:19:30.210Z,1.15
2023-01-13T00:21:56.709Z,1.00
2023-01-13T00:24:23.248Z,1.20
2023-01-13T00:26:49.771Z,0.88
2023-01-13T00:29:16.277Z,1.10
2023-01-13T00:31:42.744Z,1.10
2023-01-13T00:34:09.287Z,0.70
2023-01-13T00:36:35.745Z,0.82
2023-01-13T00:39:03.111Z,1.02
2023-01-13T00:41:50.015Z,0.90
2023-01-13T00:44:16.492Z,1.08
2023-01-13T00:46:43.057Z,0.88
2023-01-13T00:49:09.598Z,1.10
2023-01-13T00:51:36.107Z,0.88
2023-01-13T00:54:02.593Z,0.70
2023-01-13T00:56:39.600Z,1.05
2023-01-13T00:59:07.796Z,0.80
2023-01-13T01:01:34.444Z,0.85
2023-01-13T01:04:00.968Z,1.02
2023-01-13T01:06:28.023Z,1.00
2023-01-13T01:08:54.825Z,0.80
2023-01-13T01:11:23.514Z,0.80
2023-01-13T01:13:52.373Z,0.75
2023-01-13T01:16:20.206Z,0.80
2023-01-13T01:18:47.571Z,0.90
2023-01-13T01:21:14.206Z,0.80
2023-01-13T01:23:41.032Z,1.60
2023-01-13T01:26:11.048Z,0.70
2023-01-13T01:28:37.550Z,0.90
2023-01-13T01:31:08.471Z,0.80
2023-01-13T01:33:34.987Z,0.82
2023-01-13T01:36:02.357Z,0.85
2023-01-13T01:38:28.870Z,1.15
2023-01-13T01:40:55.335Z,0.90
2023-01-13T01:43:41.337Z,0.70
2023-01-13T01:46:07.770Z,0.73
2023-01-13T01:48:39.886Z,0.98
2023-01-13T01:51:09.108Z,1.02
2023-01-13T01:53:35.658Z,1.20
2023-01-13T01:56:02.158Z,0.80
2023-01-13T01:58:35.901Z,1.10
2023-01-13T02:01:02.455Z,0.90
2023-01-13T02:03:29.215Z,0.80
2023-01-13T02:05:55.717Z,0.73
2023-01-13T02:08:22.211Z,1.17
2023-01-13T02:10:50.844Z,1.92
2023-01-13T02:13:17.389Z,0.90
2023-01-13T02:16:03.058Z,1.20
2023-01-13T02:18:54.111Z,0.80
2023-01-13T02:21:49.615Z,0.73
2023-01-13T02:24:37.767Z,0.80
2023-01-13T02:27:38.212Z,1.00
2023-01-13T02:30:58.258Z,0.80
2023-01-13T02:33:39.322Z,0.95
2023-01-13T02:36:26.928Z,1.02
2023-01-13T02:39:28.778Z,1.00
2023-01-13T02:42:27.028Z,0.95
2023-01-13T02:45:00.870Z,0.70
2023-01-13T02:47:27.837Z,0.93
2023-01-13T02:49:56.335Z,1.00
2023-01-13T02:52:27.281Z,0.75
2023-01-13T02:54:58.824Z,0.60
2023-01-13T02:57:25.360Z,0.63
2023-01-13T02:59:53.180Z,1.13
2023-01-13T03:02:20.479Z,1.25
2023-01-13T03:04:55.041Z,0.80
2023-01-13T03:07:53.310Z,0.90
2023-01-13T03:10:52.284Z,0.60
2023-01-13T03:13:21.369Z,0.90
2023-01-13T03:16:16.705Z,0.85
2023-01-13T03:19:21.760Z,0.75
2023-01-13T03:21:59.254Z,0.90
2023-01-13T03:24:34.480Z,0.80
2023-01-13T03:27:15.734Z,0.68
2023-01-13T03:30:04.082Z,1.13
2023-01-13T03:32:41.386Z,0.70
2023-01-13T03:35:09.949Z,0.98
2023-01-13T03:37:39.623Z,1.70
2023-01-13T03:40:11.356Z,0.90
2023-01-13T03:42:37.840Z,0.95
2023-01-13T03:45:12.708Z,0.88
2023-01-13T03:47:49.995Z,0.70
2023-01-13T03:50:22.542Z,0.55
2023-01-13T03:52:51.695Z,0.70
2023-01-13T03:55:20.748Z,0.60
2023-01-13T03:58:09.692Z,0.60
2023-01-13T04:00:38.856Z,0.60
2023-01-13T04:03:10.713Z,0.65
2023-01-13T04:05:39.934Z,0.90
2023-01-13T04:08:12.445Z,0.65
2023-01-13T04:10:43.744Z,0.70
2023-01-13T04:13:16.266Z,0.65
2023-01-13T04:15:43.923Z,0.77
2023-01-13T04:18:17.498Z,0.80
2023-01-13T04:20:45.105Z,0.80
2023-01-13T04:23:13.462Z,0.70
2023-01-13T04:25:41.009Z,1.33
2023-01-13T04:28:07.692Z,0.57
2023-01-13T04:30:34.257Z,0.60
2023-01-13T04:33:00.762Z,0.70
2023-01-13T04:35:27.317Z,0.65
2023-01-13T04:37:53.857Z,0.50
2023-01-13T04:40:20.415Z,0.50
2023-01-13T04:42:46.973Z,0.70
2023-01-13T04:45:13.842Z,0.52
2023-01-13T04:47:41.903Z,0.60
2023-01-13T04:50:09.387Z,0.50
2023-01-13T04:52:35.871Z,0.50
2023-01-13T04:55:02.682Z,0.70
2023-01-13T04:57:29.358Z,1.00
2023-01-13T04:59:55.839Z,0.70
2023-01-13T05:02:22.494Z,0.55
2023-01-13T05:04:49.060Z,0.75
2023-01-13T05:07:15.830Z,0.82
2023-01-13T05:09:42.310Z,0.60
2023-01-13T05:12:28.111Z,0.60
2023-01-13T05:15:13.303Z,0.60
2023-01-13T05:17:39.815Z,0.63
2023-01-13T05:20:06.749Z,0.73
2023-01-13T05:22:51.832Z,1.45
2023-01-13T05:25:27.992Z,0.98
2023-01-13T05:27:56.117Z,0.70
2023-01-13T05:30:24.439Z,0.55
2023-01-13T05:32:50.908Z,0.90
2023-01-13T05:35:17.596Z,0.80
2023-01-13T05:37:44.677Z,0.93
2023-01-13T05:40:31.302Z,1.15
2023-01-13T05:43:25.538Z,1.23
2023-01-13T05:45:58.192Z,0.50
2023-01-13T05:48:27.481Z,0.70
2023-01-13T05:50:54.082Z,1.13
2023-01-13T05:53:21.148Z,0.75
2023-01-13T05:55:47.620Z,2.22
2023-01-13T05:58:14.934Z,2.05
2023-01-13T06:00:41.981Z,0.98
2023-01-13T06:03:08.675Z,0.80
2023-01-13T06:05:35.287Z,0.70
2023-01-13T06:08:03.740Z,0.65
2023-01-13T06:10:30.562Z,0.90
2023-01-13T06:12:57.139Z,0.80
2023-01-13T06:15:23.778Z,0.60
2023-01-13T06:17:50.341Z,0.73
2023-01-13T06:20:17.481Z,0.43
2023-01-13T06:22:48.866Z,1.00
2023-01-13T06:25:38.636Z,1.00
2023-01-13T06:28:05.230Z,0.75
2023-01-13T06:30:36.787Z,0.80
2023-01-13T06:33:03.545Z,0.57
2023-01-13T06:35:31.991Z,0.88
2023-01-13T06:37:58.905Z,0.68
2023-01-13T06:40:25.430Z,0.60
2023-01-13T06:43:11.190Z,0.70
2023-01-13T06:45:37.677Z,0.70
2023-01-13T06:48:04.347Z,0.50
2023-01-13T06:50:30.959Z,1.00
2023-01-13T06:52:57.552Z,0.50
2023-01-13T06:55:24.293Z,0.70
2023-01-13T06:57:55.380Z,0.65
2023-01-13T07:00:22.378Z,0.70
2023-01-13T07:02:49.119Z,0.77
2023-01-13T07:05:15.970Z,0.90
2023-01-13T07:07:42.477Z,0.95
2023-01-13T07:10:13.170Z,1.17
2023-01-13T07:12:58.726Z,0.70
2023-01-13T07:15:26.391Z,0.60
2023-01-13T07:17:53.171Z,0.50
2023-01-13T07:20:19.844Z,0.60
2023-01-13T07:22:46.388Z,0.90
2023-01-13T07:25:12.890Z,0.65
2023-01-13T07:27:39.552Z,0.80
2023-01-13T07:30:06.605Z,0.63
2023-01-13T07:32:33.510Z,1.20
2023-01-13T07:35:05.252Z,0.63
2023-01-13T07:37:35.646Z,0.88
2023-01-13T07:40:03.452Z,1.10
2023-01-13T07:42:48.238Z,0.60
2023-01-13T07:45:14.730Z,0.47
2023-01-13T07:47:41.241Z,0.70
2023-01-13T07:50:08.640Z,0.75
2023-01-13T07:52:35.157Z,0.40
2023-01-13T07:55:01.657Z,0.50
2023-01-13T07:57:28.223Z,0.77
2023-01-13T07:59:54.760Z,0.57
2023-01-13T08:02:21.736Z,0.50
2023-01-13T08:04:48.473Z,0.80
2023-01-13T08:07:14.964Z,0.70
2023-01-13T08:09:41.468Z,0.73
2023-01-13T08:12:27.568Z,0.60
2023-01-13T08:14:54.276Z,0.50
2023-01-13T08:17:20.981Z,0.60
2023-01-13T08:19:47.523Z,0.70
2023-01-13T08:22:14.054Z,0.60
2023-01-13T08:24:40.574Z,0.75
2023-01-13T08:27:07.157Z,0.70
2023-01-13T08:29:33.669Z,0.73
2023-01-13T08:32:00.140Z,0.95
2023-01-13T08:34:26.647Z,0.52
2023-01-13T08:36:53.212Z,0.70
2023-01-13T08:39:19.764Z,1.65
2023-01-13T08:41:55.305Z,0.68
2023-01-13T08:44:28.957Z,0.60
2023-01-13T08:46:55.683Z,0.63
2023-01-13T08:49:22.382Z,0.70
2023-01-13T08:51:50.045Z,0.50
2023-01-13T08:54:17.209Z,0.50
2023-01-13T08:56:44.128Z,0.60
2023-01-13T08:59:17.852Z,0.70
2023-01-13T09:01:44.579Z,0.77
2023-01-13T09:04:15.950Z,0.65
2023-01-13T09:06:42.463Z,0.90
2023-01-13T09:09:09.015Z,0.55
2023-01-13T09:11:55.819Z,0.40
2023-01-13T09:14:23.434Z,0.55
2023-01-13T09:16:49.952Z,0.52
2023-01-13T09:19:16.665Z,0.50
2023-01-13T09:21:43.165Z,0.55
2023-01-13T09:24:09.729Z,0.30
2023-01-13T09:26:36.972Z,0.45
2023-01-13T09:29:03.824Z,0.60
2023-01-13T09:31:34.297Z,0.63
2023-01-13T09:34:22.728Z,0.52
2023-01-13T09:36:49.375Z,0.50
2023-01-13T09:39:15.940Z,0.70
2023-01-13T09:42:06.694Z,0.50
2023-01-13T09:44:48.407Z,0.50
2023-01-13T09:47:46.025Z,0.50
2023-01-13T09:50:18.234Z,0.47
2023-01-13T09:52:44.745Z,0.30
2023-01-13T09:55:19.553Z,0.50
2023-01-13T09:57:46.011Z,0.22
2023-01-13T10:00:17.996Z,0.47
2023-01-13T10:03:02.794Z,0.38
2023-01-13T10:05:39.023Z,0.57
2023-01-13T10:08:10.885Z,0.60
2023-01-13T10:10:38.826Z,0.70
2023-01-13T10:13:30.769Z,0.30
2023-01-13T10:16:11.586Z,0.50
2023-01-13T10:19:02.989Z,0.50
2023-01-13T10:21:54.259Z,0.35
2023-01-13T10:24:26.590Z,0.57
2023-01-13T10:27:01.843Z,0.38
2023-01-13T10:29:29.102Z,0.32
2023-01-13T10:31:56.270Z,0.30
2023-01-13T10:34:23.869Z,0.73
2023-01-13T10:37:09.036Z,0.47
2023-01-13T10:39:43.419Z,0.45
2023-01-13T10:42:21.993Z,0.50
2023-01-13T10:44:57.094Z,0.60
2023-01-13T10:47:31.061Z,0.47
2023-01-13T10:50:03.481Z,0.40
2023-01-13T10:52:32.672Z,0.43
2023-01-13T10:55:01.055Z,0.32
2023-01-13T10:57:27.820Z,0.30
2023-01-13T10:59:56.326Z,0.50
2023-01-13T11:02:32.422Z,0.40
2023-01-13T11:05:26.775Z,0.65
2023-01-13T11:07:56.273Z,0.30
2023-01-13T11:10:27.524Z,0.30
2023-01-13T11:12:57.707Z,0.20
2023-01-13T11:15:31.724Z,0.50
2023-01-13T11:18:02.671Z,0.70
2023-01-13T11:20:41.190Z,0.80
2023-01-13T11:23:29.720Z,0.32
2023-01-13T11:26:16.411Z,0.43
2023-01-13T11:28:50.971Z,0.38
2023-01-13T11:31:31.178Z,0.50
2023-01-13T11:34:01.370Z,0.50
2023-01-13T11:36:37.740Z,0.77
2023-01-13T11:39:42.998Z,0.68
2023-01-13T11:42:27.821Z,1.20
2023-01-13T11:45:32.007Z,2.97
2023-01-13T11:47:59.699Z,0.70
2023-01-13T11:50:34.499Z,0.85
2023-01-13T11:53:18.785Z,0.70
2023-01-13T11:56:09.683Z,0.80
2023-01-13T11:59:12.286Z,1.00
2023-01-13T12:02:07.944Z,3.30
2023-01-13T12:04:53.427Z,1.52
2023-01-13T12:07:23.112Z,0.70
2023-01-13T12:10:13.356Z,1.38
2023-01-13T12:13:04.663Z,1.75
2023-01-13T12:15:51.623Z,1.90
2023-01-13T12:18:36.958Z,0.73
2023-01-13T12:21:09.409Z,0.70
2023-01-13T12:23:39.510Z,0.70
2023-01-13T12:26:16.584Z,0.40
2023-01-13T12:28:58.218Z,2.28
2023-01-13T12:31:25.311Z,0.50
2023-01-13T12:33:55.038Z,0.90
2023-01-13T12:36:29.304Z,1.25
2023-01-13T12:38:59.228Z,1.48
2023-01-13T12:42:01.075Z,2.42
2023-01-13T12:44:29.185Z,1.33
2023-01-13T12:46:57.670Z,1.30
2023-01-13T12:49:36.800Z,2.58
2023-01-13T12:52:14.282Z,1.23
2023-01-13T12:54:40.735Z,1.50
2023-01-13T12:57:16.170Z,1.20
2023-01-13T12:59:48.948Z,2.33
2023-01-13T13:04:42.447Z,2.85
2023-01-13T13:07:10.529Z,4.68
2023-01-13T13:09:43.864Z,1.27
2023-01-13T13:13:00.210Z,1.00
2023-01-13T13:15:36.977Z,1.08
2023-01-13T13:18:28.244Z,0.85
2023-01-13T13:21:00.740Z,0.50
2023-01-13T13:23:52.955Z,0.98
2023-01-13T13:26:20.176Z,0.40
2023-01-13T13:29:08.122Z,0.40
2023-01-13T13:31:49.541Z,1.10
2023-01-13T13:34:21.659Z,0.80
2023-01-13T13:36:59.987Z,1.05
2023-01-13T13:39:46.296Z,0.50
2023-01-13T13:42:45.257Z,0.30
2023-01-13T13:45:39.980Z,0.70
2023-01-13T13:48:23.550Z,0.70
2023-01-13T13:50:55.018Z,0.38
2023-01-13T13:53:21.505Z,0.45
2023-01-13T13:55:59.803Z,0.40
2023-01-13T13:58:27.386Z,0.60
2023-01-13T14:00:54.288Z,0.47
2023-01-13T14:03:26.806Z,0.57
2023-01-13T14:06:04.150Z,0.45
2023-01-13T14:08:35.013Z,0.30
2023-01-13T14:11:01.593Z,1.23
2023-01-13T14:13:31.460Z,0.70
2023-01-13T14:16:05.027Z,0.60
2023-01-13T14:18:33.489Z,1.02
2023-01-13T14:21:00.706Z,0.60
2023-01-13T14:23:29.185Z,0.47
2023-01-13T14:25:55.777Z,0.45
2023-01-13T14:28:32.535Z,0.40
2023-01-13T14:30:59.105Z,0.70
2023-01-13T14:33:42.147Z,0.90
2023-01-13T14:38:38.225Z,1.67
2023-01-13T14:41:26.398Z,1.60
2023-01-13T14:43:54.518Z,1.70
2023-01-13T14:46:23.188Z,1.23
2023-01-13T14:48:50.355Z,1.80
2023-01-13T14:51:24.703Z,1.35
2023-01-13T14:53:51.414Z,1.67
2023-01-13T14:56:37.995Z,0.73
2023-01-13T14:59:32.264Z,1.67
2023-01-13T15:01:58.901Z,0.70
2023-01-13T15:04:26.980Z,5.20
2023-01-13T15:06:55.404Z,4.38
2023-01-13T15:09:27.360Z,2.50
2023-01-13T15:11:54.302Z,3.10
2023-01-13T15:14:25.337Z,1.20
2023-01-13T15:16:51.889Z,0.80
2023-01-13T15:19:18.401Z,1.17
2023-01-13T15:21:44.963Z,0.70
2023-01-13T15:24:11.457Z,1.10
2023-01-13T15:26:38.043Z,1.42
2023-01-13T15:29:05.351Z,1.33
2023-01-13T15:31:31.937Z,0.95
2023-01-13T15:34:00.375Z,0.85
2023-01-13T15:36:31.316Z,1.02
2023-01-13T15:38:58.248Z,0.80
2023-01-13T15:41:43.787Z,0.80
2023-01-13T15:44:32.556Z,0.82
2023-01-13T15:47:00.161Z,0.75
2023-01-13T15:49:35.090Z,1.38
2023-01-13T15:52:05.581Z,1.25
2023-01-13T15:54:32.072Z,1.23
2023-01-13T15:56:58.627Z,0.70
2023-01-13T15:59:27.541Z,1.05
2023-01-13T16:01:54.014Z,1.23
2023-01-13T16:04:20.484Z,2.95
2023-01-13T16:06:47.620Z,2.08
2023-01-13T16:09:14.287Z,1.20
2023-01-13T16:11:40.849Z,1.02
2023-01-13T16:14:07.426Z,1.08
2023-01-13T16:16:33.994Z,0.85
2023-01-13T16:19:00.452Z,1.10
2023-01-13T16:21:26.969Z,0.90
2023-01-13T16:23:53.526Z,1.40
2023-01-13T16:26:27.754Z,1.67
2023-01-13T16:28:54.974Z,1.42
2023-01-13T16:31:31.745Z,1.23
2023-01-13T16:33:59.333Z,0.90
2023-01-13T16:36:25.813Z,1.40
2023-01-13T16:38:52.547Z,1.85
2023-01-13T16:41:20.048Z,1.50
2023-01-13T16:43:47.052Z,1.10
2023-01-13T16:46:27.926Z,1.20
2023-01-13T16:48:56.271Z,1.27
2023-01-13T16:51:23.162Z,1.35
2023-01-13T16:53:49.988Z,1.10
2023-01-13T16:56:23.517Z,1.65
2023-01-13T16:58:50.833Z,1.25
2023-01-13T17:01:23.092Z,2.10
2023-01-13T17:03:49.859Z,2.15
2023-01-13T17:06:17.326Z,1.67
2023-01-13T17:08:43.840Z,1.02
2023-01-13T17:11:10.550Z,1.20
2023-01-13T17:13:37.123Z,0.93
2023-01-13T17:16:03.692Z,1.23
2023-01-13T17:18:30.210Z,1.15
2023-01-13T17:20:58.701Z,1.15
2023-01-13T17:23:25.245Z,0.82
2023-01-13T17:25:54.609Z,1.25
2023-01-13T17:28:22.964Z,1.10
2023-01-13T17:30:49.464Z,1.15
2023-01-13T17:33:15.934Z,1.20
2023-01-13T17:35:42.504Z,1.92
2023-01-13T17:38:09.077Z,2.75
2023-01-13T17:40:36.800Z,1.25
2023-01-13T17:43:03.455Z,1.58
2023-01-13T17:45:29.989Z,1.38
2023-01-13T17:47:57.906Z,1.00
2023-01-13T17:50:24.826Z,1.27
2023-01-13T17:52:51.351Z,2.10
2023-01-13T17:55:17.812Z,1.65
2023-01-13T17:57:44.358Z,1.40
2023-01-13T18:00:12.365Z,1.73
2023-01-13T18:02:38.881Z,1.45
2023-01-13T18:05:05.751Z,1.75
2023-01-13T18:07:32.315Z,2.78
2023-01-13T18:09:58.848Z,2.08
2023-01-13T18:12:25.349Z,2.05
2023-01-13T18:14:51.840Z,4.28
2023-01-13T18:17:18.340Z,2.40
2023-01-13T18:20:03.462Z,3.75
2023-01-13T18:23:02.418Z,2.53
2023-01-13T18:25:47.733Z,2.80
2023-01-13T18:28:14.217Z,2.08
2023-01-13T18:30:40.773Z,1.60
2023-01-13T18:33:07.465Z,1.50
2023-01-13T18:35:33.940Z,1.50
2023-01-13T18:38:00.452Z,2.35
2023-01-13T18:40:27.011Z,2.10
2023-01-13T18:42:58.209Z,2.55
2023-01-13T18:45:26.934Z,4.68
2023-01-13T18:47:56.311Z,4.90
2023-01-13T18:50:23.191Z,3.78
2023-01-13T18:52:49.794Z,3.28
2023-01-13T18:55:16.383Z,2.70
2023-01-13T18:57:43.072Z,2.30
2023-01-13T19:00:10.802Z,2.35
2023-01-13T19:02:37.554Z,1.67
2023-01-13T19:05:04.246Z,2.22
2023-01-13T19:07:31.925Z,3.25
2023-01-13T19:09:59.582Z,2.08
2023-01-13T19:12:27.192Z,2.83
2023-01-13T19:14:54.600Z,2.05
2023-01-13T19:17:21.739Z,2.13
2023-01-13T19:19:50.787Z,1.98
2023-01-13T19:22:19.730Z,1.75
2023-01-13T19:24:46.411Z,2.20
2023-01-13T19:27:16.413Z,2.28
2023-01-13T19:29:48.779Z,2.28
2023-01-13T19:32:18.845Z,1.70
2023-01-13T19:34:46.740Z,1.95
2023-01-13T19:37:13.305Z,2.38
2023-01-13T19:39:39.861Z,2.50
2023-01-13T19:42:24.812Z,2.38
2023-01-13T19:45:09.884Z,3.13
2023-01-13T19:47:38.455Z,2.95
2023-01-13T19:50:07.958Z,2.45
2023-01-13T19:52:34.762Z,2.50
2023-01-13T19:55:01.925Z,2.28
2023-01-13T19:57:28.548Z,2.25
2023-01-13T19:59:55.449Z,2.20
2023-01-13T20:02:28.246Z,1.80
2023-01-13T20:04:56.053Z,2.83
2023-01-13T20:07:23.910Z,2.63
2023-01-13T20:09:51.076Z,3.63
2023-01-13T20:12:17.746Z,3.20
2023-01-13T20:14:45.158Z,8.02
2023-01-13T20:17:12.452Z,4.45
2023-01-13T20:19:38.994Z,4.60
2023-01-13T20:22:05.509Z,3.95
2023-01-13T20:24:32.043Z,4.25
2023-01-13T20:26:58.689Z,3.97
2023-01-13T20:29:25.189Z,3.47
2023-01-13T20:31:51.665Z,2.60
2023-01-13T20:34:21.081Z,2.22
2023-01-13T20:36:48.326Z,2.60
2023-01-13T20:39:19.716Z,3.22
2023-01-13T20:42:04.713Z,3.13
2023-01-13T20:44:31.255Z,3.30
2023-01-13T20:46:57.933Z,2.42
2023-01-13T20:49:25.136Z,2.33
2023-01-13T20:51:51.622Z,2.33
2023-01-13T20:54:18.277Z,2.70
2023-01-13T20:56:44.818Z,1.90
2023-01-13T20:59:11.368Z,1.95
2023-01-13T21:01:37.914Z,2.13
2023-01-13T21:04:06.017Z,1.60
2023-01-13T21:06:32.742Z,1.42
2023-01-13T21:08:59.303Z,2.10
2023-01-13T21:11:45.372Z,1.80
2023-01-13T21:14:37.600Z,1.70
2023-01-13T21:17:04.389Z,1.63
2023-01-13T21:19:30.909Z,1.90
2023-01-13T21:21:57.391Z,1.65
2023-01-13T21:24:24.749Z,1.85
2023-01-13T21:26:57.918Z,1.60
2023-01-13T21:29:24.446Z,1.85
2023-01-13T21:31:50.948Z,2.50
2023-01-13T21:34:17.542Z,2.17
2023-01-13T21:36:44.073Z,4.18
2023-01-13T21:39:10.617Z,5.03
2023-01-13T21:41:55.689Z,3.30
2023-01-13T21:44:40.890Z,2.38
2023-01-13T21:47:36.140Z,1.45
2023-01-13T21:50:03.530Z,1.88
2023-01-13T21:52:29.995Z,2.95
2023-01-13T21:55:15.028Z,2.33
2023-01-13T21:57:44.878Z,2.38
2023-01-13T22:00:11.779Z,2.20
2023-01-13T22:02:38.625Z,2.15
2023-01-13T22:05:06.399Z,2.25
2023-01-13T22:07:34.339Z,2.20
2023-01-13T22:10:01.281Z,2.15
2023-01-13T22:12:29.406Z,2.20
2023-01-13T22:14:55.965Z,1.98
2023-01-13T22:17:23.491Z,1.73
2023-01-13T22:19:51.300Z,1.83
2023-01-13T22:22:18.827Z,2.72
2023-01-13T22:24:47.683Z,2.05
2023-01-13T22:27:21.188Z,2.00
2023-01-13T22:29:48.107Z,1.75
2023-01-13T22:32:15.244Z,2.53
2023-01-13T22:34:41.984Z,2.03
2023-01-13T22:37:09.287Z,2.17
2023-01-13T22:39:35.891Z,2.05
2023-01-13T22:42:02.424Z,2.00
2023-01-13T22:44:28.966Z,2.47
2023-01-13T22:46:55.529Z,1.98
2023-01-13T22:49:22.922Z,2.20
2023-01-13T22:51:49.409Z,1.90
2023-01-13T22:54:17.022Z,1.90
2023-01-13T22:56:43.507Z,1.75
2023-01-13T22:59:11.854Z,1.92
2023-01-13T23:01:38.660Z,1.80
2023-01-13T23:04:05.337Z,1.83
2023-01-13T23:06:32.731Z,2.28
2023-01-13T23:08:59.291Z,2.60
2023-01-13T23:11:27.336Z,1.20
2023-01-13T23:13:59.390Z,1.67
2023-01-13T23:16:26.039Z,1.92
2023-01-13T23:18:52.584Z,2.00
2023-01-13T23:21:23.762Z,1.85
2023-01-13T23:23:50.408Z,1.83
2023-01-13T23:26:17.180Z,1.38
2023-01-13T23:28:43.754Z,1.75
2023-01-13T23:31:12.631Z,1.50
2023-01-13T23:33:41.111Z,1.55
2023-01-13T23:36:08.096Z,1.58
2023-01-13T23:38:34.655Z,1.50
2023-01-13T23:41:01.170Z,1.25
2023-01-13T23:43:27.693Z,1.75
2023-01-13T23:46:04.780Z,0.80
2023-01-13T23:48:32.804Z,1.48
2023-01-13T23:51:07.458Z,1.35
2023-01-13T23:53:39.121Z,1.52
2023-01-13T23:56:07.557Z,1.60
2023-01-13T23:58:34.760Z,1.45
